sensor_id;sensor_type;location;lat;lon;timestamp;P1;durP1;ratioP1;P2;durP2;ratioP2
52554;SDS011;38455;52.710;6.502;2023-04-29T00:00:24;50.28;;;30.48;;
52554;SDS011;38455;52.710;6.502;2023-04-29T00:02:50;49.13;;;28.83;;
52554;SDS011;38455;52.710;6.502;2023-04-29T00:05:15;49.25;;;28.67;;
52554;SDS011;38455;52.710;6.502;2023-04-29T00:07:42;46.95;;;28.63;;
52554;SDS011;38455;52.710;6.502;2023-04-29T00:10:07;50.47;;;28.67;;
52554;SDS011;38455;52.710;6.502;2023-04-29T00:12:33;49.25;;;28.70;;
52554;SDS011;38455;52.710;6.502;2023-04-29T00:14:59;48.50;;;29.25;;
52554;SDS011;38455;52.710;6.502;2023-04-29T00:17:26;41.85;;;27.58;;
52554;SDS011;38455;52.710;6.502;2023-04-29T00:19:52;51.75;;;30.58;;
52554;SDS011;38455;52.710;6.502;2023-04-29T00:22:18;52.67;;;31.08;;
52554;SDS011;38455;52.710;6.502;2023-04-29T00:24:45;46.00;;;28.60;;
52554;SDS011;38455;52.710;6.502;2023-04-29T00:27:11;51.63;;;30.60;;
52554;SDS011;38455;52.710;6.502;2023-04-29T00:29:37;51.22;;;29.33;;
52554;SDS011;38455;52.710;6.502;2023-04-29T00:32:02;52.22;;;29.83;;
52554;SDS011;38455;52.710;6.502;2023-04-29T00:34:29;45.90;;;29.45;;
52554;SDS011;38455;52.710;6.502;2023-04-29T00:36:54;49.22;;;29.75;;
52554;SDS011;38455;52.710;6.502;2023-04-29T00:39:20;45.92;;;28.92;;
52554;SDS011;38455;52.710;6.502;2023-04-29T00:41:46;44.08;;;28.92;;
52554;SDS011;38455;52.710;6.502;2023-04-29T00:44:11;46.70;;;28.85;;
52554;SDS011;38455;52.710;6.502;2023-04-29T00:46:37;45.25;;;27.75;;
52554;SDS011;38455;52.710;6.502;2023-04-29T00:49:02;42.38;;;26.02;;
52554;SDS011;38455;52.710;6.502;2023-04-29T00:51:28;42.38;;;25.15;;
52554;SDS011;38455;52.710;6.502;2023-04-29T00:53:54;39.72;;;24.80;;
52554;SDS011;38455;52.710;6.502;2023-04-29T00:56:20;36.83;;;24.65;;
52554;SDS011;38455;52.710;6.502;2023-04-29T00:58:46;37.83;;;24.67;;
52554;SDS011;38455;52.710;6.502;2023-04-29T01:01:17;38.67;;;24.05;;
52554;SDS011;38455;52.710;6.502;2023-04-29T01:03:44;39.15;;;23.40;;
52554;SDS011;38455;52.710;6.502;2023-04-29T01:06:22;32.72;;;23.00;;
52554;SDS011;38455;52.710;6.502;2023-04-29T01:12:05;43.25;;;24.05;;
52554;SDS011;38455;52.710;6.502;2023-04-29T01:14:36;41.25;;;22.73;;
52554;SDS011;38455;52.710;6.502;2023-04-29T01:17:05;37.33;;;23.13;;
52554;SDS011;38455;52.710;6.502;2023-04-29T01:19:51;38.63;;;22.60;;
52554;SDS011;38455;52.710;6.502;2023-04-29T01:22:22;34.03;;;22.95;;
52554;SDS011;38455;52.710;6.502;2023-04-29T01:24:48;37.20;;;23.33;;
52554;SDS011;38455;52.710;6.502;2023-04-29T01:29:54;40.17;;;22.98;;
52554;SDS011;38455;52.710;6.502;2023-04-29T01:32:36;37.58;;;23.63;;
52554;SDS011;38455;52.710;6.502;2023-04-29T01:35:18;44.53;;;24.73;;
52554;SDS011;38455;52.710;6.502;2023-04-29T01:40:19;40.60;;;24.83;;
52554;SDS011;38455;52.710;6.502;2023-04-29T01:42:54;44.45;;;24.13;;
52554;SDS011;38455;52.710;6.502;2023-04-29T01:45:33;43.83;;;24.35;;
52554;SDS011;38455;52.710;6.502;2023-04-29T01:48:05;45.58;;;25.77;;
52554;SDS011;38455;52.710;6.502;2023-04-29T01:50:31;43.25;;;25.27;;
52554;SDS011;38455;52.710;6.502;2023-04-29T01:52:57;59.25;;;28.40;;
52554;SDS011;38455;52.710;6.502;2023-04-29T01:55:23;49.95;;;26.70;;
52554;SDS011;38455;52.710;6.502;2023-04-29T01:57:48;47.92;;;26.98;;
52554;SDS011;38455;52.710;6.502;2023-04-29T02:00:14;50.83;;;26.17;;
52554;SDS011;38455;52.710;6.502;2023-04-29T02:02:40;46.70;;;25.73;;
52554;SDS011;38455;52.710;6.502;2023-04-29T02:05:05;41.70;;;24.10;;
52554;SDS011;38455;52.710;6.502;2023-04-29T02:07:31;44.10;;;25.45;;
52554;SDS011;38455;52.710;6.502;2023-04-29T02:09:57;49.10;;;27.35;;
52554;SDS011;38455;52.710;6.502;2023-04-29T02:12:22;44.25;;;26.35;;
52554;SDS011;38455;52.710;6.502;2023-04-29T02:14:51;51.83;;;27.05;;
52554;SDS011;38455;52.710;6.502;2023-04-29T02:17:17;44.05;;;26.65;;
52554;SDS011;38455;52.710;6.502;2023-04-29T02:19:42;46.28;;;27.67;;
52554;SDS011;38455;52.710;6.502;2023-04-29T02:22:08;46.45;;;26.88;;
52554;SDS011;38455;52.710;6.502;2023-04-29T02:24:36;48.55;;;27.08;;
52554;SDS011;38455;52.710;6.502;2023-04-29T02:27:02;40.42;;;24.70;;
52554;SDS011;38455;52.710;6.502;2023-04-29T02:29:30;48.58;;;27.50;;
52554;SDS011;38455;52.710;6.502;2023-04-29T02:31:56;45.97;;;25.17;;
52554;SDS011;38455;52.710;6.502;2023-04-29T02:34:22;43.33;;;25.40;;
52554;SDS011;38455;52.710;6.502;2023-04-29T02:36:48;43.97;;;25.23;;
52554;SDS011;38455;52.710;6.502;2023-04-29T02:39:14;40.30;;;23.25;;
52554;SDS011;38455;52.710;6.502;2023-04-29T02:41:40;42.42;;;24.27;;
52554;SDS011;38455;52.710;6.502;2023-04-29T02:44:06;42.75;;;24.15;;
52554;SDS011;38455;52.710;6.502;2023-04-29T02:46:32;43.00;;;23.20;;
52554;SDS011;38455;52.710;6.502;2023-04-29T02:49:00;45.10;;;22.77;;
52554;SDS011;38455;52.710;6.502;2023-04-29T02:51:26;33.55;;;21.17;;
52554;SDS011;38455;52.710;6.502;2023-04-29T02:53:52;39.78;;;21.83;;
52554;SDS011;38455;52.710;6.502;2023-04-29T02:56:18;37.08;;;20.77;;
52554;SDS011;38455;52.710;6.502;2023-04-29T02:58:44;38.67;;;22.58;;
52554;SDS011;38455;52.710;6.502;2023-04-29T03:01:10;40.45;;;21.48;;
52554;SDS011;38455;52.710;6.502;2023-04-29T03:03:35;36.92;;;21.95;;
52554;SDS011;38455;52.710;6.502;2023-04-29T03:06:01;33.50;;;20.85;;
52554;SDS011;38455;52.710;6.502;2023-04-29T03:08:27;34.42;;;20.55;;
52554;SDS011;38455;52.710;6.502;2023-04-29T03:10:53;36.50;;;21.17;;
52554;SDS011;38455;52.710;6.502;2023-04-29T03:13:19;35.30;;;20.10;;
52554;SDS011;38455;52.710;6.502;2023-04-29T03:15:45;41.70;;;21.63;;
52554;SDS011;38455;52.710;6.502;2023-04-29T03:18:10;42.17;;;22.85;;
52554;SDS011;38455;52.710;6.502;2023-04-29T03:20:36;38.88;;;21.33;;
52554;SDS011;38455;52.710;6.502;2023-04-29T03:23:02;39.45;;;22.00;;
52554;SDS011;38455;52.710;6.502;2023-04-29T03:25:27;38.63;;;23.73;;
52554;SDS011;38455;52.710;6.502;2023-04-29T03:27:54;36.03;;;21.65;;
52554;SDS011;38455;52.710;6.502;2023-04-29T03:30:19;43.53;;;20.38;;
52554;SDS011;38455;52.710;6.502;2023-04-29T03:32:45;32.13;;;19.98;;
52554;SDS011;38455;52.710;6.502;2023-04-29T03:35:11;36.40;;;20.65;;
52554;SDS011;38455;52.710;6.502;2023-04-29T03:37:37;34.22;;;20.30;;
52554;SDS011;38455;52.710;6.502;2023-04-29T03:40:03;37.40;;;20.75;;
52554;SDS011;38455;52.710;6.502;2023-04-29T03:42:30;31.25;;;19.10;;
52554;SDS011;38455;52.710;6.502;2023-04-29T03:44:55;36.15;;;19.52;;
52554;SDS011;38455;52.710;6.502;2023-04-29T03:47:21;33.00;;;20.08;;
52554;SDS011;38455;52.710;6.502;2023-04-29T03:49:47;31.42;;;18.75;;
52554;SDS011;38455;52.710;6.502;2023-04-29T03:52:13;42.00;;;21.80;;
52554;SDS011;38455;52.710;6.502;2023-04-29T03:54:40;31.58;;;19.67;;
52554;SDS011;38455;52.710;6.502;2023-04-29T03:57:05;35.58;;;20.73;;
52554;SDS011;38455;52.710;6.502;2023-04-29T03:59:31;39.28;;;20.70;;
52554;SDS011;38455;52.710;6.502;2023-04-29T04:01:57;35.42;;;20.42;;
52554;SDS011;38455;52.710;6.502;2023-04-29T04:04:22;33.70;;;18.55;;
52554;SDS011;38455;52.710;6.502;2023-04-29T04:06:48;34.47;;;19.92;;
52554;SDS011;38455;52.710;6.502;2023-04-29T04:09:16;30.23;;;18.38;;
52554;SDS011;38455;52.710;6.502;2023-04-29T04:11:42;37.97;;;19.85;;
52554;SDS011;38455;52.710;6.502;2023-04-29T04:14:08;34.17;;;20.67;;
52554;SDS011;38455;52.710;6.502;2023-04-29T04:16:34;33.85;;;19.63;;
52554;SDS011;38455;52.710;6.502;2023-04-29T04:19:00;33.13;;;19.80;;
52554;SDS011;38455;52.710;6.502;2023-04-29T04:21:26;40.28;;;20.02;;
52554;SDS011;38455;52.710;6.502;2023-04-29T04:23:51;35.95;;;20.67;;
52554;SDS011;38455;52.710;6.502;2023-04-29T04:26:17;38.55;;;20.17;;
52554;SDS011;38455;52.710;6.502;2023-04-29T04:28:44;47.03;;;21.92;;
52554;SDS011;38455;52.710;6.502;2023-04-29T04:31:10;37.17;;;20.25;;
52554;SDS011;38455;52.710;6.502;2023-04-29T04:33:38;39.13;;;20.27;;
52554;SDS011;38455;52.710;6.502;2023-04-29T04:36:05;39.20;;;20.55;;
52554;SDS011;38455;52.710;6.502;2023-04-29T04:38:31;37.70;;;20.95;;
52554;SDS011;38455;52.710;6.502;2023-04-29T04:40:57;40.17;;;21.02;;
52554;SDS011;38455;52.710;6.502;2023-04-29T04:43:22;37.38;;;21.02;;
52554;SDS011;38455;52.710;6.502;2023-04-29T04:45:48;35.10;;;19.60;;
52554;SDS011;38455;52.710;6.502;2023-04-29T04:48:14;37.47;;;18.85;;
52554;SDS011;38455;52.710;6.502;2023-04-29T04:50:39;35.20;;;19.67;;
52554;SDS011;38455;52.710;6.502;2023-04-29T04:53:05;34.13;;;20.40;;
52554;SDS011;38455;52.710;6.502;2023-04-29T04:55:31;41.15;;;20.55;;
52554;SDS011;38455;52.710;6.502;2023-04-29T04:57:57;36.83;;;17.67;;
52554;SDS011;38455;52.710;6.502;2023-04-29T05:00:23;32.53;;;17.48;;
52554;SDS011;38455;52.710;6.502;2023-04-29T05:02:49;31.75;;;18.20;;
52554;SDS011;38455;52.710;6.502;2023-04-29T05:05:15;39.03;;;19.17;;
52554;SDS011;38455;52.710;6.502;2023-04-29T05:07:40;42.40;;;18.95;;
52554;SDS011;38455;52.710;6.502;2023-04-29T05:10:06;30.75;;;18.77;;
52554;SDS011;38455;52.710;6.502;2023-04-29T05:12:33;30.95;;;18.02;;
52554;SDS011;38455;52.710;6.502;2023-04-29T05:14:59;29.92;;;16.05;;
52554;SDS011;38455;52.710;6.502;2023-04-29T05:17:25;33.33;;;17.58;;
52554;SDS011;38455;52.710;6.502;2023-04-29T05:19:51;29.90;;;16.98;;
52554;SDS011;38455;52.710;6.502;2023-04-29T05:22:17;32.70;;;16.58;;
52554;SDS011;38455;52.710;6.502;2023-04-29T05:24:42;29.65;;;16.95;;
52554;SDS011;38455;52.710;6.502;2023-04-29T05:27:08;36.92;;;18.13;;
52554;SDS011;38455;52.710;6.502;2023-04-29T05:29:34;29.20;;;16.35;;
52554;SDS011;38455;52.710;6.502;2023-04-29T05:31:59;27.60;;;16.95;;
52554;SDS011;38455;52.710;6.502;2023-04-29T05:34:25;30.75;;;16.70;;
52554;SDS011;38455;52.710;6.502;2023-04-29T05:36:50;32.78;;;16.15;;
52554;SDS011;38455;52.710;6.502;2023-04-29T05:39:16;31.02;;;15.95;;
52554;SDS011;38455;52.710;6.502;2023-04-29T05:41:42;29.92;;;16.35;;
52554;SDS011;38455;52.710;6.502;2023-04-29T05:44:08;34.97;;;17.58;;
52554;SDS011;38455;52.710;6.502;2023-04-29T05:46:34;31.65;;;17.25;;
52554;SDS011;38455;52.710;6.502;2023-04-29T05:49:00;24.42;;;14.52;;
52554;SDS011;38455;52.710;6.502;2023-04-29T05:51:26;31.42;;;16.98;;
52554;SDS011;38455;52.710;6.502;2023-04-29T05:53:52;27.42;;;15.85;;
52554;SDS011;38455;52.710;6.502;2023-04-29T05:56:18;29.25;;;15.07;;
52554;SDS011;38455;52.710;6.502;2023-04-29T05:58:44;28.77;;;16.75;;
52554;SDS011;38455;52.710;6.502;2023-04-29T06:01:10;27.92;;;14.82;;
52554;SDS011;38455;52.710;6.502;2023-04-29T06:03:35;25.23;;;15.10;;
52554;SDS011;38455;52.710;6.502;2023-04-29T06:06:01;27.35;;;14.60;;
52554;SDS011;38455;52.710;6.502;2023-04-29T06:08:28;30.17;;;15.05;;
52554;SDS011;38455;52.710;6.502;2023-04-29T06:10:54;24.50;;;13.13;;
52554;SDS011;38455;52.710;6.502;2023-04-29T06:13:19;30.70;;;14.95;;
52554;SDS011;38455;52.710;6.502;2023-04-29T06:15:45;25.95;;;13.88;;
52554;SDS011;38455;52.710;6.502;2023-04-29T06:18:11;28.60;;;14.77;;
52554;SDS011;38455;52.710;6.502;2023-04-29T06:20:36;23.70;;;13.52;;
52554;SDS011;38455;52.710;6.502;2023-04-29T06:23:02;21.63;;;12.35;;
52554;SDS011;38455;52.710;6.502;2023-04-29T06:25:29;26.20;;;14.02;;
52554;SDS011;38455;52.710;6.502;2023-04-29T06:27:55;26.27;;;13.13;;
52554;SDS011;38455;52.710;6.502;2023-04-29T06:30:21;25.90;;;13.15;;
52554;SDS011;38455;52.710;6.502;2023-04-29T06:32:47;29.17;;;12.98;;
52554;SDS011;38455;52.710;6.502;2023-04-29T06:35:13;23.77;;;12.65;;
52554;SDS011;38455;52.710;6.502;2023-04-29T06:37:38;21.73;;;12.35;;
52554;SDS011;38455;52.710;6.502;2023-04-29T06:40:05;21.08;;;12.05;;
52554;SDS011;38455;52.710;6.502;2023-04-29T06:42:31;22.77;;;12.85;;
52554;SDS011;38455;52.710;6.502;2023-04-29T06:44:56;28.13;;;12.10;;
52554;SDS011;38455;52.710;6.502;2023-04-29T06:47:22;21.20;;;11.13;;
52554;SDS011;38455;52.710;6.502;2023-04-29T06:49:48;20.83;;;11.07;;
52554;SDS011;38455;52.710;6.502;2023-04-29T06:52:13;23.70;;;12.02;;
52554;SDS011;38455;52.710;6.502;2023-04-29T06:54:39;24.08;;;12.55;;
52554;SDS011;38455;52.710;6.502;2023-04-29T06:57:05;20.23;;;11.57;;
52554;SDS011;38455;52.710;6.502;2023-04-29T06:59:31;20.35;;;11.75;;
52554;SDS011;38455;52.710;6.502;2023-04-29T07:01:56;18.73;;;10.38;;
52554;SDS011;38455;52.710;6.502;2023-04-29T07:04:22;20.40;;;11.10;;
52554;SDS011;38455;52.710;6.502;2023-04-29T07:06:48;16.55;;;10.35;;
52554;SDS011;38455;52.710;6.502;2023-04-29T07:09:13;21.30;;;11.02;;
52554;SDS011;38455;52.710;6.502;2023-04-29T07:11:39;20.15;;;12.20;;
52554;SDS011;38455;52.710;6.502;2023-04-29T07:14:05;22.58;;;11.07;;
52554;SDS011;38455;52.710;6.502;2023-04-29T07:16:31;20.63;;;12.63;;
52554;SDS011;38455;52.710;6.502;2023-04-29T07:18:57;18.25;;;10.63;;
52554;SDS011;38455;52.710;6.502;2023-04-29T07:21:23;19.63;;;10.75;;
52554;SDS011;38455;52.710;6.502;2023-04-29T07:23:49;15.27;;;10.20;;
52554;SDS011;38455;52.710;6.502;2023-04-29T07:26:15;16.88;;;9.90;;
52554;SDS011;38455;52.710;6.502;2023-04-29T07:28:41;16.60;;;9.68;;
52554;SDS011;38455;52.710;6.502;2023-04-29T07:31:07;16.48;;;8.88;;
52554;SDS011;38455;52.710;6.502;2023-04-29T07:33:34;16.90;;;9.00;;
52554;SDS011;38455;52.710;6.502;2023-04-29T07:35:59;17.67;;;9.55;;
52554;SDS011;38455;52.710;6.502;2023-04-29T07:38:25;18.48;;;8.93;;
52554;SDS011;38455;52.710;6.502;2023-04-29T07:40:51;13.30;;;8.23;;
52554;SDS011;38455;52.710;6.502;2023-04-29T07:43:17;15.88;;;8.45;;
52554;SDS011;38455;52.710;6.502;2023-04-29T07:45:43;12.75;;;8.48;;
52554;SDS011;38455;52.710;6.502;2023-04-29T07:48:09;13.75;;;8.80;;
52554;SDS011;38455;52.710;6.502;2023-04-29T07:50:35;14.10;;;8.50;;
52554;SDS011;38455;52.710;6.502;2023-04-29T07:53:04;10.70;;;7.32;;
52554;SDS011;38455;52.710;6.502;2023-04-29T07:55:30;12.40;;;8.20;;
52554;SDS011;38455;52.710;6.502;2023-04-29T07:57:56;14.25;;;7.60;;
52554;SDS011;38455;52.710;6.502;2023-04-29T08:00:22;14.95;;;7.97;;
52554;SDS011;38455;52.710;6.502;2023-04-29T08:02:51;11.85;;;6.80;;
52554;SDS011;38455;52.710;6.502;2023-04-29T08:05:17;10.63;;;6.60;;
52554;SDS011;38455;52.710;6.502;2023-04-29T08:07:45;24.88;;;7.75;;
52554;SDS011;38455;52.710;6.502;2023-04-29T08:10:11;11.55;;;6.40;;
52554;SDS011;38455;52.710;6.502;2023-04-29T08:12:36;13.15;;;7.57;;
52554;SDS011;38455;52.710;6.502;2023-04-29T08:15:02;12.40;;;7.25;;
52554;SDS011;38455;52.710;6.502;2023-04-29T08:17:29;13.35;;;8.25;;
52554;SDS011;38455;52.710;6.502;2023-04-29T08:19:54;11.43;;;7.25;;
52554;SDS011;38455;52.710;6.502;2023-04-29T08:22:20;11.48;;;7.10;;
52554;SDS011;38455;52.710;6.502;2023-04-29T08:24:46;10.13;;;6.50;;
52554;SDS011;38455;52.710;6.502;2023-04-29T08:27:12;12.30;;;7.82;;
52554;SDS011;38455;52.710;6.502;2023-04-29T08:29:39;11.88;;;6.95;;
52554;SDS011;38455;52.710;6.502;2023-04-29T08:32:05;12.98;;;7.72;;
52554;SDS011;38455;52.710;6.502;2023-04-29T08:34:31;11.20;;;7.60;;
52554;SDS011;38455;52.710;6.502;2023-04-29T08:36:58;10.32;;;7.28;;
52554;SDS011;38455;52.710;6.502;2023-04-29T08:39:23;11.43;;;6.82;;
52554;SDS011;38455;52.710;6.502;2023-04-29T08:41:50;10.45;;;6.90;;
52554;SDS011;38455;52.710;6.502;2023-04-29T08:44:19;9.02;;;6.53;;
52554;SDS011;38455;52.710;6.502;2023-04-29T08:46:45;8.38;;;6.68;;
52554;SDS011;38455;52.710;6.502;2023-04-29T08:49:12;10.55;;;6.72;;
52554;SDS011;38455;52.710;6.502;2023-04-29T08:51:38;13.13;;;6.63;;
52554;SDS011;38455;52.710;6.502;2023-04-29T08:54:04;8.85;;;6.70;;
52554;SDS011;38455;52.710;6.502;2023-04-29T08:56:31;10.52;;;7.03;;
52554;SDS011;38455;52.710;6.502;2023-04-29T08:58:57;12.18;;;7.20;;
52554;SDS011;38455;52.710;6.502;2023-04-29T09:01:28;10.85;;;7.60;;
52554;SDS011;38455;52.710;6.502;2023-04-29T09:06:46;9.02;;;5.97;;
52554;SDS011;38455;52.710;6.502;2023-04-29T09:09:12;12.70;;;6.20;;
52554;SDS011;38455;52.710;6.502;2023-04-29T09:11:39;9.82;;;5.95;;
52554;SDS011;38455;52.710;6.502;2023-04-29T09:14:05;8.77;;;6.43;;
52554;SDS011;38455;52.710;6.502;2023-04-29T09:16:32;12.45;;;6.85;;
52554;SDS011;38455;52.710;6.502;2023-04-29T09:18:59;12.48;;;5.95;;
52554;SDS011;38455;52.710;6.502;2023-04-29T09:21:26;8.02;;;5.70;;
52554;SDS011;38455;52.710;6.502;2023-04-29T09:23:53;8.82;;;6.00;;
52554;SDS011;38455;52.710;6.502;2023-04-29T09:26:20;11.20;;;6.22;;
52554;SDS011;38455;52.710;6.502;2023-04-29T09:29:07;11.68;;;5.53;;
52554;SDS011;38455;52.710;6.502;2023-04-29T09:31:39;7.82;;;5.30;;
52554;SDS011;38455;52.710;6.502;2023-04-29T09:34:05;7.85;;;5.15;;
52554;SDS011;38455;52.710;6.502;2023-04-29T09:36:37;10.10;;;5.25;;
52554;SDS011;38455;52.710;6.502;2023-04-29T09:39:10;9.48;;;5.03;;
52554;SDS011;38455;52.710;6.502;2023-04-29T09:42:01;8.82;;;5.25;;
52554;SDS011;38455;52.710;6.502;2023-04-29T09:44:30;9.50;;;5.30;;
52554;SDS011;38455;52.710;6.502;2023-04-29T09:47:03;8.60;;;5.45;;
52554;SDS011;38455;52.710;6.502;2023-04-29T09:52:02;8.65;;;4.75;;
52554;SDS011;38455;52.710;6.502;2023-04-29T09:54:30;11.23;;;5.07;;
52554;SDS011;38455;52.710;6.502;2023-04-29T09:56:57;6.53;;;4.88;;
52554;SDS011;38455;52.710;6.502;2023-04-29T09:59:24;8.57;;;5.00;;
52554;SDS011;38455;52.710;6.502;2023-04-29T10:01:55;6.70;;;4.80;;
52554;SDS011;38455;52.710;6.502;2023-04-29T10:04:23;6.80;;;4.40;;
52554;SDS011;38455;52.710;6.502;2023-04-29T10:06:51;8.90;;;4.72;;
52554;SDS011;38455;52.710;6.502;2023-04-29T10:09:18;7.05;;;4.60;;
52554;SDS011;38455;52.710;6.502;2023-04-29T10:11:45;7.30;;;4.43;;
52554;SDS011;38455;52.710;6.502;2023-04-29T10:14:14;7.60;;;4.75;;
52554;SDS011;38455;52.710;6.502;2023-04-29T10:16:44;6.03;;;4.05;;
52554;SDS011;38455;52.710;6.502;2023-04-29T10:19:25;8.25;;;4.38;;
52554;SDS011;38455;52.710;6.502;2023-04-29T10:22:07;7.65;;;3.90;;
52554;SDS011;38455;52.710;6.502;2023-04-29T10:24:36;5.75;;;4.45;;
52554;SDS011;38455;52.710;6.502;2023-04-29T10:27:05;9.82;;;4.15;;
52554;SDS011;38455;52.710;6.502;2023-04-29T10:29:33;8.80;;;4.57;;
52554;SDS011;38455;52.710;6.502;2023-04-29T10:32:00;9.20;;;4.47;;
52554;SDS011;38455;52.710;6.502;2023-04-29T10:34:28;9.73;;;4.93;;
52554;SDS011;38455;52.710;6.502;2023-04-29T10:36:56;7.80;;;4.25;;
52554;SDS011;38455;52.710;6.502;2023-04-29T10:39:25;9.13;;;4.07;;
52554;SDS011;38455;52.710;6.502;2023-04-29T10:41:58;6.20;;;4.75;;
52554;SDS011;38455;52.710;6.502;2023-04-29T10:44:24;6.43;;;3.83;;
52554;SDS011;38455;52.710;6.502;2023-04-29T10:47:01;10.00;;;4.47;;
52554;SDS011;38455;52.710;6.502;2023-04-29T10:50:01;8.57;;;3.97;;
52554;SDS011;38455;52.710;6.502;2023-04-29T10:52:28;8.85;;;4.40;;
52554;SDS011;38455;52.710;6.502;2023-04-29T10:55:03;11.13;;;4.88;;
52554;SDS011;38455;52.710;6.502;2023-04-29T10:57:29;7.10;;;4.25;;
52554;SDS011;38455;52.710;6.502;2023-04-29T10:59:54;6.28;;;4.03;;
52554;SDS011;38455;52.710;6.502;2023-04-29T11:02:20;6.05;;;3.97;;
52554;SDS011;38455;52.710;6.502;2023-04-29T11:07:31;8.10;;;4.10;;
52554;SDS011;38455;52.710;6.502;2023-04-29T11:09:56;9.05;;;4.90;;
52554;SDS011;38455;52.710;6.502;2023-04-29T11:12:22;9.90;;;4.68;;
52554;SDS011;38455;52.710;6.502;2023-04-29T11:14:48;6.75;;;3.92;;
52554;SDS011;38455;52.710;6.502;2023-04-29T11:17:15;9.00;;;3.85;;
52554;SDS011;38455;52.710;6.502;2023-04-29T11:19:53;10.23;;;4.30;;
52554;SDS011;38455;52.710;6.502;2023-04-29T11:22:29;5.10;;;3.35;;
52554;SDS011;38455;52.710;6.502;2023-04-29T11:25:07;6.38;;;3.63;;
52554;SDS011;38455;52.710;6.502;2023-04-29T11:27:35;7.88;;;3.38;;
52554;SDS011;38455;52.710;6.502;2023-04-29T11:30:03;5.40;;;3.70;;
52554;SDS011;38455;52.710;6.502;2023-04-29T11:32:30;5.20;;;3.30;;
52554;SDS011;38455;52.710;6.502;2023-04-29T11:37:36;7.05;;;3.45;;
52554;SDS011;38455;52.710;6.502;2023-04-29T11:40:03;8.23;;;3.90;;
52554;SDS011;38455;52.710;6.502;2023-04-29T11:42:32;5.82;;;3.60;;
52554;SDS011;38455;52.710;6.502;2023-04-29T11:45:00;6.03;;;3.45;;
52554;SDS011;38455;52.710;6.502;2023-04-29T11:47:27;8.38;;;3.83;;
52554;SDS011;38455;52.710;6.502;2023-04-29T11:50:00;6.75;;;4.47;;
52554;SDS011;38455;52.710;6.502;2023-04-29T11:52:27;4.32;;;2.67;;
52554;SDS011;38455;52.710;6.502;2023-04-29T11:54:53;6.28;;;3.20;;
52554;SDS011;38455;52.710;6.502;2023-04-29T11:57:19;7.05;;;3.30;;
52554;SDS011;38455;52.710;6.502;2023-04-29T11:59:45;5.18;;;2.90;;
52554;SDS011;38455;52.710;6.502;2023-04-29T12:02:11;5.40;;;3.13;;
52554;SDS011;38455;52.710;6.502;2023-04-29T12:04:47;6.70;;;3.42;;
52554;SDS011;38455;52.710;6.502;2023-04-29T12:07:15;4.85;;;3.28;;
52554;SDS011;38455;52.710;6.502;2023-04-29T12:09:45;4.53;;;2.92;;
52554;SDS011;38455;52.710;6.502;2023-04-29T12:12:12;6.07;;;3.42;;
52554;SDS011;38455;52.710;6.502;2023-04-29T12:14:39;4.63;;;2.95;;
52554;SDS011;38455;52.710;6.502;2023-04-29T12:17:05;5.68;;;3.13;;
52554;SDS011;38455;52.710;6.502;2023-04-29T12:19:32;6.32;;;3.67;;
52554;SDS011;38455;52.710;6.502;2023-04-29T12:21:58;4.78;;;2.92;;
52554;SDS011;38455;52.710;6.502;2023-04-29T12:24:24;6.47;;;3.28;;
52554;SDS011;38455;52.710;6.502;2023-04-29T12:26:50;6.88;;;3.45;;
52554;SDS011;38455;52.710;6.502;2023-04-29T12:29:19;8.05;;;4.20;;
52554;SDS011;38455;52.710;6.502;2023-04-29T12:31:46;5.72;;;3.20;;
52554;SDS011;38455;52.710;6.502;2023-04-29T12:34:12;5.15;;;2.90;;
52554;SDS011;38455;52.710;6.502;2023-04-29T12:36:40;4.70;;;2.70;;
52554;SDS011;38455;52.710;6.502;2023-04-29T12:39:06;4.40;;;2.70;;
52554;SDS011;38455;52.710;6.502;2023-04-29T12:41:35;7.35;;;3.60;;
52554;SDS011;38455;52.710;6.502;2023-04-29T12:44:02;5.70;;;2.88;;
52554;SDS011;38455;52.710;6.502;2023-04-29T12:46:32;8.25;;;3.35;;
52554;SDS011;38455;52.710;6.502;2023-04-29T12:49:01;4.10;;;2.45;;
52554;SDS011;38455;52.710;6.502;2023-04-29T12:51:28;5.60;;;3.00;;
52554;SDS011;38455;52.710;6.502;2023-04-29T12:53:56;6.40;;;2.95;;
52554;SDS011;38455;52.710;6.502;2023-04-29T12:56:22;4.45;;;2.78;;
52554;SDS011;38455;52.710;6.502;2023-04-29T12:58:48;5.15;;;3.00;;
52554;SDS011;38455;52.710;6.502;2023-04-29T13:01:13;4.90;;;2.58;;
52554;SDS011;38455;52.710;6.502;2023-04-29T13:03:40;7.95;;;3.08;;
52554;SDS011;38455;52.710;6.502;2023-04-29T13:06:05;5.25;;;3.05;;
52554;SDS011;38455;52.710;6.502;2023-04-29T13:08:32;8.02;;;3.40;;
52554;SDS011;38455;52.710;6.502;2023-04-29T13:10:58;8.40;;;3.28;;
52554;SDS011;38455;52.710;6.502;2023-04-29T13:13:24;4.78;;;3.28;;
52554;SDS011;38455;52.710;6.502;2023-04-29T13:15:49;5.38;;;3.53;;
52554;SDS011;38455;52.710;6.502;2023-04-29T13:18:15;4.20;;;2.65;;
52554;SDS011;38455;52.710;6.502;2023-04-29T13:20:41;5.68;;;3.03;;
52554;SDS011;38455;52.710;6.502;2023-04-29T13:23:06;4.05;;;2.78;;
52554;SDS011;38455;52.710;6.502;2023-04-29T13:25:32;9.00;;;3.95;;
52554;SDS011;38455;52.710;6.502;2023-04-29T13:27:58;5.97;;;2.20;;
52554;SDS011;38455;52.710;6.502;2023-04-29T13:30:23;6.80;;;3.00;;
52554;SDS011;38455;52.710;6.502;2023-04-29T13:32:49;7.72;;;2.72;;
52554;SDS011;38455;52.710;6.502;2023-04-29T13:35:15;6.78;;;2.60;;
52554;SDS011;38455;52.710;6.502;2023-04-29T13:37:40;5.50;;;2.72;;
52554;SDS011;38455;52.710;6.502;2023-04-29T13:40:06;5.45;;;2.55;;
52554;SDS011;38455;52.710;6.502;2023-04-29T13:42:32;5.60;;;2.72;;
52554;SDS011;38455;52.710;6.502;2023-04-29T13:44:58;4.43;;;2.13;;
52554;SDS011;38455;52.710;6.502;2023-04-29T13:47:24;3.47;;;2.17;;
52554;SDS011;38455;52.710;6.502;2023-04-29T13:49:49;6.88;;;2.13;;
52554;SDS011;38455;52.710;6.502;2023-04-29T13:52:15;5.05;;;2.60;;
52554;SDS011;38455;52.710;6.502;2023-04-29T13:54:41;4.80;;;1.90;;
52554;SDS011;38455;52.710;6.502;2023-04-29T13:57:06;4.88;;;2.55;;
52554;SDS011;38455;52.710;6.502;2023-04-29T13:59:33;5.70;;;2.67;;
52554;SDS011;38455;52.710;6.502;2023-04-29T14:02:00;5.20;;;2.20;;
52554;SDS011;38455;52.710;6.502;2023-04-29T14:04:26;7.57;;;2.67;;
52554;SDS011;38455;52.710;6.502;2023-04-29T14:06:53;4.32;;;2.60;;
52554;SDS011;38455;52.710;6.502;2023-04-29T14:09:19;5.97;;;2.72;;
52554;SDS011;38455;52.710;6.502;2023-04-29T14:11:46;4.18;;;2.17;;
52554;SDS011;38455;52.710;6.502;2023-04-29T14:14:13;5.82;;;1.98;;
52554;SDS011;38455;52.710;6.502;2023-04-29T14:16:39;6.25;;;2.20;;
52554;SDS011;38455;52.710;6.502;2023-04-29T14:19:05;4.65;;;2.08;;
52554;SDS011;38455;52.710;6.502;2023-04-29T14:21:31;4.53;;;2.47;;
52554;SDS011;38455;52.710;6.502;2023-04-29T14:24:01;6.72;;;2.60;;
52554;SDS011;38455;52.710;6.502;2023-04-29T14:26:27;6.97;;;2.28;;
52554;SDS011;38455;52.710;6.502;2023-04-29T14:28:56;6.25;;;2.42;;
52554;SDS011;38455;52.710;6.502;2023-04-29T14:31:27;5.53;;;2.33;;
52554;SDS011;38455;52.710;6.502;2023-04-29T14:33:58;7.60;;;2.40;;
52554;SDS011;38455;52.710;6.502;2023-04-29T14:36:24;6.93;;;2.08;;
52554;SDS011;38455;52.710;6.502;2023-04-29T14:38:50;5.47;;;1.80;;
52554;SDS011;38455;52.710;6.502;2023-04-29T14:41:17;2.95;;;1.75;;
52554;SDS011;38455;52.710;6.502;2023-04-29T14:43:45;4.28;;;1.70;;
52554;SDS011;38455;52.710;6.502;2023-04-29T14:46:10;2.65;;;1.50;;
52554;SDS011;38455;52.710;6.502;2023-04-29T14:48:36;4.00;;;1.50;;
52554;SDS011;38455;52.710;6.502;2023-04-29T14:51:02;4.38;;;1.05;;